createdAt,value
2017-04-03T00:00:32.077Z,0
2017-04-03T00:01:40.159Z,0
2017-04-03T00:02:48.252Z,0
2017-04-03T00:03:56.341Z,0
2017-04-03T00:05:04.435Z,0
2017-04-03T00:06:12.511Z,0
2017-04-03T00:07:20.606Z,0
2017-04-03T00:08:28.693Z,0
2017-04-03T00:09:36.776Z,0
2017-04-03T00:10:44.866Z,0
2017-04-03T00:11:52.958Z,0
2017-04-03T00:13:01.046Z,0
2017-04-03T00:14:09.125Z,0
2017-04-03T00:15:17.218Z,0
2017-04-03T00:16:25.308Z,0
2017-04-03T00:17:33.393Z,0
2017-04-03T00:18:41.485Z,0
2017-04-03T00:19:49.570Z,0
2017-04-03T00:20:57.654Z,0
2017-04-03T00:22:05.743Z,0
2017-04-03T00:23:13.835Z,0
2017-04-03T00:24:21.919Z,0
2017-04-03T00:25:30.004Z,0
2017-04-03T00:26:38.094Z,0
2017-04-03T00:27:46.183Z,0
2017-04-03T00:28:54.271Z,0
2017-04-03T00:30:02.356Z,0
2017-04-03T00:31:10.445Z,0
2017-04-03T00:32:18.534Z,0
2017-04-03T00:33:26.618Z,0
2017-04-03T00:34:34.707Z,0
2017-04-03T00:35:42.794Z,0
2017-04-03T00:36:50.878Z,0
2017-04-03T00:37:58.964Z,0
2017-04-03T00:39:07.058Z,0
2017-04-03T00:40:15.146Z,0
2017-04-03T00:41:23.298Z,0
2017-04-03T00:42:31.320Z,0
2017-04-03T00:43:39.411Z,0
2017-04-03T00:44:47.496Z,0
2017-04-03T00:45:55.589Z,0
2017-04-03T00:47:03.681Z,0
2017-04-03T00:48:11.782Z,0
2017-04-03T00:49:19.851Z,0
2017-04-03T00:50:27.941Z,0
2017-04-03T00:51:36.032Z,0
2017-04-03T00:52:44.122Z,0
2017-04-03T00:53:52.211Z,0
2017-04-03T00:55:00.301Z,0
2017-04-03T00:56:08.385Z,0
2017-04-03T00:57:16.473Z,0
2017-04-03T00:58:24.569Z,0
2017-04-03T00:59:32.651Z,0
2017-04-03T01:00:40.737Z,0
2017-04-03T01:01:48.829Z,0
2017-04-03T01:02:56.916Z,0
2017-04-03T01:04:05.003Z,0
2017-04-03T01:05:13.088Z,0
2017-04-03T01:06:21.178Z,0
2017-04-03T01:07:29.267Z,0
2017-04-03T01:08:37.350Z,0
2017-04-03T01:09:45.441Z,0
2017-04-03T01:10:53.537Z,0
2017-04-03T01:12:01.621Z,0
2017-04-03T01:13:09.709Z,0
2017-04-03T01:14:17.798Z,0
2017-04-03T01:15:25.916Z,0
2017-04-03T01:16:33.975Z,0
2017-04-03T01:17:42.062Z,0
2017-04-03T01:18:50.150Z,0
2017-04-03T01:19:58.237Z,0
2017-04-03T01:21:06.321Z,0
2017-04-03T01:22:14.414Z,0
2017-04-03T01:23:22.508Z,0
2017-04-03T01:24:30.591Z,0
2017-04-03T01:25:38.682Z,0
2017-04-03T01:26:46.773Z,0
2017-04-03T01:27:54.915Z,0
2017-04-03T01:29:02.948Z,0
2017-04-03T01:30:11.037Z,0
2017-04-03T01:31:19.126Z,0
2017-04-03T01:32:27.210Z,0
2017-04-03T01:33:35.305Z,0
2017-04-03T01:34:43.395Z,0
2017-04-03T01:35:51.475Z,0
2017-04-03T01:36:59.560Z,0
2017-04-03T01:38:07.652Z,0
2017-04-03T01:39:15.737Z,0
2017-04-03T01:40:23.825Z,0
2017-04-03T01:41:31.914Z,0
2017-04-03T01:42:40.005Z,0
2017-04-03T01:43:48.091Z,0
2017-04-03T01:44:56.180Z,0
2017-04-03T01:46:04.270Z,0
2017-04-03T01:47:12.358Z,0
2017-04-03T01:48:20.442Z,0
2017-04-03T01:49:28.537Z,0
2017-04-03T01:50:36.627Z,0
2017-04-03T01:51:44.720Z,0
2017-04-03T01:52:52.801Z,0
2017-04-03T01:54:00.890Z,0
2017-04-03T01:55:08.979Z,0
2017-04-03T01:56:17.059Z,0
2017-04-03T01:57:25.149Z,0
2017-04-03T01:58:33.238Z,0
2017-04-03T01:59:41.325Z,0
2017-04-03T02:00:49.418Z,0
2017-04-03T02:01:57.505Z,0
2017-04-03T02:03:05.589Z,0
2017-04-03T02:04:13.675Z,0
2017-04-03T02:05:21.767Z,0
2017-04-03T02:06:29.850Z,0
2017-04-03T02:07:37.933Z,0
2017-04-03T02:08:46.024Z,0
2017-04-03T02:09:54.115Z,0
2017-04-03T02:11:02.199Z,0
2017-04-03T02:12:10.285Z,0
2017-04-03T02:13:18.380Z,0
2017-04-03T02:14:26.472Z,0
2017-04-03T02:15:34.561Z,0
2017-04-03T02:16:42.650Z,0
2017-04-03T02:17:50.734Z,0
2017-04-03T02:18:58.827Z,0
2017-04-03T02:20:06.910Z,0
2017-04-03T02:21:15.002Z,0
2017-04-03T02:22:23.091Z,0
2017-04-03T02:23:31.176Z,0
2017-04-03T02:24:39.266Z,0
2017-04-03T02:25:47.352Z,0
2017-04-03T02:26:55.436Z,0
2017-04-03T02:28:03.522Z,0
2017-04-03T02:29:11.613Z,0
2017-04-03T02:30:19.703Z,0
2017-04-03T02:31:27.791Z,0
2017-04-03T02:32:35.880Z,0
2017-04-03T02:33:43.968Z,0
2017-04-03T02:34:52.064Z,0
2017-04-03T02:36:00.138Z,0
2017-04-03T02:37:08.227Z,0
2017-04-03T02:38:16.314Z,0
2017-04-03T02:39:24.404Z,0
2017-04-03T02:40:32.487Z,0
2017-04-03T02:41:40.576Z,0
2017-04-03T02:42:48.662Z,0
2017-04-03T02:43:56.745Z,0
2017-04-03T02:45:04.836Z,0
2017-04-03T02:46:12.921Z,0
2017-04-03T02:47:21.008Z,0
2017-04-03T02:48:29.098Z,0
2017-04-03T02:49:37.182Z,0
2017-04-03T02:50:45.269Z,0
2017-04-03T02:51:53.354Z,0
2017-04-03T02:53:01.442Z,0
2017-04-03T02:54:09.530Z,0
2017-04-03T02:55:17.612Z,0
2017-04-03T02:56:25.704Z,0
2017-04-03T02:57:33.791Z,0
2017-04-03T02:58:41.877Z,0
2017-04-03T02:59:49.963Z,0
2017-04-03T03:00:58.058Z,0
2017-04-03T03:02:06.146Z,0
2017-04-03T03:03:14.231Z,0
2017-04-03T03:04:22.323Z,0
2017-04-03T03:05:30.413Z,0
2017-04-03T03:06:38.503Z,0
2017-04-03T03:07:46.582Z,0
2017-04-03T03:08:54.674Z,0
2017-04-03T03:10:02.804Z,0
2017-04-03T03:11:10.841Z,0
2017-04-03T03:12:18.930Z,0
2017-04-03T03:13:27.021Z,0
2017-04-03T03:14:35.107Z,0
2017-04-03T03:15:43.194Z,0
2017-04-03T03:16:51.287Z,0
2017-04-03T03:17:59.372Z,0
2017-04-03T03:19:07.460Z,0
2017-04-03T03:20:15.546Z,0
2017-04-03T03:21:23.631Z,0
2017-04-03T03:22:31.715Z,0
2017-04-03T03:23:39.805Z,0
2017-04-03T03:24:47.892Z,0
2017-04-03T03:25:55.980Z,0
2017-04-03T03:27:04.102Z,0
2017-04-03T03:28:12.154Z,0
2017-04-03T03:29:20.243Z,0
2017-04-03T03:30:28.324Z,0
2017-04-03T03:31:36.414Z,0
2017-04-03T03:32:44.502Z,0
2017-04-03T03:33:52.592Z,0
2017-04-03T03:35:00.677Z,0
2017-04-03T03:36:08.767Z,0
2017-04-03T03:37:16.855Z,0
2017-04-03T03:38:24.940Z,0
2017-04-03T03:39:33.031Z,0
2017-04-03T03:40:41.113Z,0
2017-04-03T03:41:49.200Z,0
2017-04-03T03:42:57.282Z,0
2017-04-03T03:44:05.408Z,0
2017-04-03T03:45:13.453Z,0
2017-04-03T03:46:21.539Z,0
2017-04-03T03:47:29.637Z,0
2017-04-03T03:48:37.718Z,0
2017-04-03T03:49:45.803Z,0
2017-04-03T03:50:53.886Z,0
2017-04-03T03:52:01.977Z,0
2017-04-03T03:53:10.063Z,0
2017-04-03T03:54:18.146Z,0
2017-04-03T03:55:26.237Z,0
2017-04-03T03:56:34.319Z,0
2017-04-03T03:57:42.403Z,0
2017-04-03T03:58:50.493Z,0
2017-04-03T03:59:58.587Z,0
2017-04-03T04:01:06.697Z,0
2017-04-03T04:02:14.759Z,0
2017-04-03T04:03:22.853Z,0
2017-04-03T04:04:30.932Z,0
2017-04-03T04:05:39.019Z,0
2017-04-03T04:06:47.101Z,0
2017-04-03T04:07:55.190Z,0
2017-04-03T04:09:03.274Z,0
2017-04-03T04:10:11.366Z,0
2017-04-03T04:11:19.451Z,0
2017-04-03T04:12:27.537Z,0
2017-04-03T04:13:35.620Z,0
2017-04-03T04:14:43.705Z,0
2017-04-03T04:15:51.798Z,0
2017-04-03T04:16:59.882Z,0
2017-04-03T04:18:07.972Z,0
2017-04-03T04:19:16.092Z,0
2017-04-03T04:20:24.147Z,0
2017-04-03T04:21:32.234Z,0
2017-04-03T04:22:40.324Z,0
2017-04-03T04:23:48.415Z,0
2017-04-03T04:24:56.501Z,0
2017-04-03T04:26:04.581Z,0
2017-04-03T04:27:12.674Z,0
2017-04-03T04:28:20.761Z,0
2017-04-03T04:29:28.847Z,0
2017-04-03T04:30:36.933Z,0
2017-04-03T04:31:45.020Z,0
2017-04-03T04:32:53.102Z,0
2017-04-03T04:34:01.189Z,0
2017-04-03T04:35:09.282Z,0
2017-04-03T04:36:17.367Z,0
2017-04-03T04:37:25.448Z,0
2017-04-03T04:38:33.542Z,0
2017-04-03T04:39:41.628Z,0
2017-04-03T04:40:49.709Z,0
2017-04-03T04:41:57.791Z,0
2017-04-03T04:43:05.884Z,0
2017-04-03T04:44:13.969Z,0
2017-04-03T04:45:22.051Z,0
2017-04-03T04:46:30.141Z,0
2017-04-03T04:47:38.229Z,0
2017-04-03T04:48:46.315Z,0
2017-04-03T04:49:54.404Z,0
2017-04-03T04:51:02.494Z,0
2017-04-03T04:52:10.578Z,0
2017-04-03T04:53:18.667Z,0
2017-04-03T04:54:26.749Z,0
2017-04-03T04:55:34.836Z,0
2017-04-03T04:56:42.920Z,0
2017-04-03T04:57:51.005Z,0
2017-04-03T04:58:59.092Z,0
2017-04-03T05:00:07.180Z,0
2017-04-03T05:01:15.284Z,0
2017-04-03T05:02:23.352Z,0
2017-04-03T05:03:31.434Z,0
2017-04-03T05:04:39.522Z,0
2017-04-03T05:05:47.606Z,4
2017-04-03T05:06:55.695Z,4
2017-04-03T05:08:03.780Z,0
2017-04-03T05:09:11.868Z,0
2017-04-03T05:10:19.956Z,0
2017-04-03T05:11:28.042Z,0
2017-04-03T05:12:36.123Z,0
2017-04-03T05:13:44.249Z,0
2017-04-03T05:14:52.297Z,4
2017-04-03T05:16:00.385Z,4
2017-04-03T05:17:08.468Z,0
2017-04-03T05:18:16.556Z,0
2017-04-03T05:19:24.646Z,4
2017-04-03T05:20:33.061Z,4
2017-04-03T05:21:40.816Z,4
2017-04-03T05:22:48.904Z,0
2017-04-03T05:23:56.990Z,0
2017-04-03T05:25:05.074Z,4
2017-04-03T05:26:13.169Z,4
2017-04-03T05:27:21.254Z,4
2017-04-03T05:28:29.341Z,4
2017-04-03T05:29:37.428Z,4
2017-04-03T05:30:45.513Z,8
2017-04-03T05:31:53.600Z,4
2017-04-03T05:33:01.682Z,8
2017-04-03T05:34:09.770Z,4
2017-04-03T05:35:17.856Z,4
2017-04-03T05:36:26.092Z,8
2017-04-03T05:37:34.029Z,8
2017-04-03T05:38:42.115Z,4
2017-04-03T05:39:50.197Z,8
2017-04-03T05:40:58.281Z,8
2017-04-03T05:42:06.370Z,8
2017-04-03T05:43:14.515Z,8
2017-04-03T05:44:22.544Z,8
2017-04-03T05:45:30.640Z,12
2017-04-03T05:46:38.723Z,12
2017-04-03T05:47:46.803Z,8
2017-04-03T05:48:55.381Z,12
2017-04-03T05:50:02.979Z,12
2017-04-03T05:51:11.065Z,8
2017-04-03T05:52:19.153Z,8
2017-04-03T05:53:27.239Z,12
2017-04-03T05:54:35.325Z,12
2017-04-03T05:55:44.060Z,12
2017-04-03T05:56:51.668Z,12
2017-04-03T05:57:59.583Z,12
2017-04-03T05:59:07.666Z,12
2017-04-03T06:00:15.749Z,12
2017-04-03T06:01:23.840Z,12
2017-04-03T06:02:31.924Z,16
2017-04-03T06:03:40.013Z,16
2017-04-03T06:04:48.095Z,16
2017-04-03T06:05:56.186Z,16
2017-04-03T06:07:04.272Z,16
2017-04-03T06:08:12.352Z,12
2017-04-03T06:09:20.443Z,16
2017-04-03T06:10:28.530Z,12
2017-04-03T06:11:36.613Z,16
2017-04-03T06:12:44.699Z,16
2017-04-03T06:13:52.788Z,16
2017-04-03T06:15:01.153Z,16
2017-04-03T06:16:08.956Z,20
2017-04-03T06:17:17.049Z,16
2017-04-03T06:18:25.131Z,20
2017-04-03T06:19:33.245Z,16
2017-04-03T06:20:41.301Z,20
2017-04-03T06:21:49.390Z,20
2017-04-03T06:22:57.476Z,20
2017-04-03T06:24:05.558Z,24
2017-04-03T06:25:13.648Z,24
2017-04-03T06:26:21.732Z,24
2017-04-03T06:27:29.832Z,28
2017-04-03T06:28:37.903Z,32
2017-04-03T06:29:45.990Z,32
2017-04-03T06:30:54.074Z,32
2017-04-03T06:32:02.161Z,32
2017-04-03T06:33:10.247Z,32
2017-04-03T06:34:18.332Z,32
2017-04-03T06:35:26.416Z,32
2017-04-03T06:36:34.507Z,32
2017-04-03T06:37:42.589Z,32
2017-04-03T06:38:50.678Z,32
2017-04-03T06:39:58.759Z,32
2017-04-03T06:41:06.848Z,28
2017-04-03T06:42:14.934Z,28
2017-04-03T06:43:23.016Z,28
2017-04-03T06:44:31.107Z,32
2017-04-03T06:45:39.193Z,28
2017-04-03T06:46:47.357Z,28
2017-04-03T06:47:55.415Z,28
2017-04-03T06:49:03.458Z,28
2017-04-03T06:50:11.541Z,24
2017-04-03T06:51:19.626Z,28
2017-04-03T06:52:27.716Z,28
2017-04-03T06:53:35.801Z,32
2017-04-03T06:54:43.888Z,32
2017-04-03T06:55:51.969Z,36
2017-04-03T06:57:00.058Z,36
2017-04-03T06:58:08.154Z,40
2017-04-03T06:59:16.295Z,44
2017-04-03T07:00:24.334Z,44
2017-04-03T07:01:32.428Z,44
2017-04-03T07:02:40.521Z,48
2017-04-03T07:03:48.668Z,48
2017-04-03T07:04:56.691Z,44
2017-04-03T07:06:04.777Z,44
2017-04-03T07:07:12.862Z,36
2017-04-03T07:08:20.948Z,36
2017-04-03T07:09:29.037Z,36
2017-04-03T07:10:37.118Z,36
2017-04-03T07:11:45.205Z,36
2017-04-03T07:12:53.296Z,44
2017-04-03T07:14:01.381Z,44
2017-04-03T07:15:09.463Z,40
2017-04-03T07:16:17.553Z,40
2017-04-03T07:17:25.641Z,44
2017-04-03T07:18:33.723Z,44
2017-04-03T07:19:41.804Z,44
2017-04-03T07:20:49.899Z,44
2017-04-03T07:21:57.978Z,36
2017-04-03T07:23:06.066Z,44
2017-04-03T07:24:14.155Z,48
2017-04-03T07:25:22.249Z,48
2017-04-03T07:26:30.327Z,44
2017-04-03T07:27:38.411Z,44
2017-04-03T07:28:46.502Z,44
2017-04-03T07:29:54.588Z,44
2017-04-03T07:31:02.670Z,36
2017-04-03T07:32:10.758Z,48
2017-04-03T07:33:18.854Z,48
2017-04-03T07:34:26.940Z,44
2017-04-03T07:35:35.026Z,48
2017-04-03T07:36:43.120Z,44
2017-04-03T07:37:51.200Z,48
2017-04-03T07:38:59.280Z,48
2017-04-03T07:40:07.365Z,48
2017-04-03T07:41:15.457Z,52
2017-04-03T07:42:23.544Z,48
2017-04-03T07:43:31.628Z,52
2017-04-03T07:44:39.716Z,48
2017-04-03T07:45:47.798Z,48
2017-04-03T07:46:55.888Z,48
2017-04-03T07:48:03.975Z,48
2017-04-03T07:49:12.059Z,48
2017-04-03T07:50:20.140Z,52
2017-04-03T07:51:28.232Z,52
2017-04-03T07:52:36.320Z,48
2017-04-03T07:53:44.411Z,52
2017-04-03T07:54:52.493Z,48
2017-04-03T07:56:00.583Z,52
2017-04-03T07:57:08.709Z,52
2017-04-03T07:58:16.751Z,44
2017-04-03T07:59:24.839Z,56
2017-04-03T08:00:32.922Z,52
2017-04-03T08:01:41.009Z,52
2017-04-03T08:02:49.091Z,48
2017-04-03T08:03:57.184Z,48
2017-04-03T08:05:05.266Z,48
2017-04-03T08:06:14.044Z,48
2017-04-03T08:07:21.439Z,52
2017-04-03T08:08:29.529Z,52
2017-04-03T08:09:37.609Z,56
2017-04-03T08:10:45.695Z,64
2017-04-03T08:11:53.787Z,60
2017-04-03T08:13:01.869Z,56
2017-04-03T08:14:09.954Z,60
2017-04-03T08:15:18.043Z,48
2017-04-03T08:16:26.130Z,56
2017-04-03T08:17:34.215Z,56
2017-04-03T08:18:42.297Z,56
2017-04-03T08:19:50.388Z,60
2017-04-03T08:20:58.476Z,64
2017-04-03T08:22:06.556Z,64
2017-04-03T08:23:14.646Z,64
2017-04-03T08:24:22.729Z,56
2017-04-03T08:25:30.818Z,60
2017-04-03T08:26:38.898Z,60
2017-04-03T08:27:46.987Z,56
2017-04-03T08:28:55.072Z,60
2017-04-03T08:30:03.157Z,48
2017-04-03T08:31:11.248Z,48
2017-04-03T08:32:19.334Z,48
2017-04-03T08:33:27.414Z,56
2017-04-03T08:34:35.498Z,52
2017-04-03T08:35:43.587Z,52
2017-04-03T08:36:51.671Z,48
2017-04-03T08:37:59.755Z,48
2017-04-03T08:39:07.847Z,52
2017-04-03T08:40:15.935Z,52
2017-04-03T08:41:24.025Z,56
2017-04-03T08:42:32.110Z,52
2017-04-03T08:43:40.196Z,56
2017-04-03T08:44:48.277Z,64
2017-04-03T08:45:56.363Z,52
2017-04-03T08:47:04.453Z,64
2017-04-03T08:48:12.538Z,48
2017-04-03T08:49:20.627Z,48
2017-04-03T08:50:28.975Z,48
2017-04-03T08:51:36.802Z,52
2017-04-03T08:52:44.891Z,52
2017-04-03T08:53:52.971Z,52
2017-04-03T08:55:01.066Z,60
2017-04-03T08:56:09.151Z,48
2017-04-03T08:57:17.252Z,48
2017-04-03T08:58:25.318Z,52
2017-04-03T08:59:33.406Z,56
2017-04-03T09:00:41.494Z,52
2017-04-03T09:01:49.578Z,64
2017-04-03T09:02:57.670Z,60
2017-04-03T09:04:05.753Z,60
2017-04-03T09:05:13.840Z,60
2017-04-03T09:06:21.926Z,52
2017-04-03T09:07:30.014Z,60
2017-04-03T09:08:38.097Z,56
2017-04-03T09:09:46.184Z,44
2017-04-03T09:10:54.271Z,48
2017-04-03T09:12:02.359Z,52
2017-04-03T09:13:10.440Z,52
2017-04-03T09:14:18.533Z,56
2017-04-03T09:15:26.617Z,56
2017-04-03T09:16:34.700Z,56
2017-04-03T09:17:42.781Z,56
2017-04-03T09:18:50.873Z,60
2017-04-03T09:19:58.957Z,52
2017-04-03T09:21:07.041Z,48
2017-04-03T09:22:15.145Z,44
2017-04-03T09:23:23.221Z,48
2017-04-03T09:24:31.306Z,44
2017-04-03T09:25:39.392Z,44
2017-04-03T09:26:47.481Z,48
2017-04-03T09:27:55.577Z,48
2017-04-03T09:29:03.655Z,48
2017-04-03T09:30:11.747Z,44
2017-04-03T09:31:19.833Z,48
2017-04-03T09:32:27.945Z,52
2017-04-03T09:33:36.002Z,52
2017-04-03T09:34:44.095Z,56
2017-04-03T09:35:52.179Z,56
2017-04-03T09:37:00.260Z,56
2017-04-03T09:38:08.351Z,56
2017-04-03T09:39:16.434Z,60
2017-04-03T09:40:24.525Z,56
2017-04-03T09:41:32.612Z,68
2017-04-03T09:42:40.697Z,68
2017-04-03T09:43:48.785Z,64
2017-04-03T09:44:56.867Z,64
2017-04-03T09:46:04.955Z,64
2017-04-03T09:47:13.041Z,60
2017-04-03T09:48:21.122Z,60
2017-04-03T09:49:29.248Z,60
2017-04-03T09:50:37.301Z,60
2017-04-03T09:51:45.387Z,60
2017-04-03T09:52:53.476Z,56
2017-04-03T09:54:01.556Z,60
2017-04-03T09:55:09.644Z,60
2017-04-03T09:56:17.738Z,56
2017-04-03T09:57:25.821Z,60
2017-04-03T09:58:33.901Z,56
2017-04-03T09:59:41.986Z,60
2017-04-03T10:00:50.072Z,60
2017-04-03T10:01:58.160Z,60
2017-04-03T10:03:06.246Z,68
2017-04-03T10:04:14.333Z,68
2017-04-03T10:05:22.419Z,68
2017-04-03T10:06:30.584Z,68
2017-04-03T10:07:38.594Z,68
2017-04-03T10:08:46.679Z,68
2017-04-03T10:09:54.764Z,64
2017-04-03T10:11:02.850Z,64
2017-04-03T10:12:10.933Z,68
2017-04-03T10:13:19.022Z,68
2017-04-03T10:14:27.130Z,68
2017-04-03T10:15:35.191Z,68
2017-04-03T10:16:43.278Z,64
2017-04-03T10:17:51.366Z,64
2017-04-03T10:18:59.455Z,60
2017-04-03T10:20:07.531Z,56
2017-04-03T10:21:15.628Z,56
2017-04-03T10:22:23.711Z,56
2017-04-03T10:23:31.791Z,48
2017-04-03T10:24:41.303Z,48
2017-04-03T10:25:48.058Z,48
2017-04-03T10:26:56.072Z,48
2017-04-03T10:28:04.142Z,48
2017-04-03T10:29:12.229Z,52
2017-04-03T10:30:20.313Z,52
2017-04-03T10:31:28.408Z,52
2017-04-03T10:32:36.484Z,48
2017-04-03T10:33:44.574Z,52
2017-04-03T10:34:52.656Z,52
2017-04-03T10:36:00.747Z,52
2017-04-03T10:37:08.829Z,56
2017-04-03T10:38:16.914Z,56
2017-04-03T10:39:25.014Z,56
2017-04-03T10:40:33.084Z,52
2017-04-03T10:41:41.170Z,56
2017-04-03T10:42:49.261Z,56
2017-04-03T10:43:57.358Z,56
2017-04-03T10:45:05.437Z,64
2017-04-03T10:46:13.521Z,84
2017-04-03T10:47:21.603Z,84
2017-04-03T10:48:29.696Z,88
2017-04-03T10:49:37.781Z,88
2017-04-03T10:50:45.865Z,84
2017-04-03T10:51:53.949Z,80
2017-04-03T10:53:02.039Z,72
2017-04-03T10:54:10.124Z,84
2017-04-03T10:55:18.206Z,84
2017-04-03T10:56:26.295Z,72
2017-04-03T10:57:34.381Z,68
2017-04-03T10:58:42.502Z,64
2017-04-03T10:59:50.556Z,68
2017-04-03T11:00:58.644Z,64
2017-04-03T11:02:06.733Z,64
2017-04-03T11:03:14.817Z,68
2017-04-03T11:04:22.903Z,60
2017-04-03T11:05:30.990Z,60
2017-04-03T11:06:39.075Z,60
2017-04-03T11:07:47.155Z,64
2017-04-03T11:08:55.247Z,68
2017-04-03T11:10:03.331Z,68
2017-04-03T11:11:11.417Z,60
2017-04-03T11:12:19.512Z,56
2017-04-03T11:13:27.589Z,60
2017-04-03T11:14:35.677Z,60
2017-04-03T11:15:43.758Z,56
2017-04-03T11:16:51.848Z,56
2017-04-03T11:17:59.934Z,60
2017-04-03T11:19:08.018Z,60
2017-04-03T11:20:16.107Z,68
2017-04-03T11:21:24.192Z,68
2017-04-03T11:22:32.279Z,84
2017-04-03T11:23:40.368Z,76
2017-04-03T11:24:48.461Z,84
2017-04-03T11:25:56.546Z,84
2017-04-03T11:27:04.629Z,84
2017-04-03T11:28:12.715Z,88
2017-04-03T11:29:20.802Z,84
2017-04-03T11:30:28.902Z,84
2017-04-03T11:31:36.978Z,84
2017-04-03T11:32:45.067Z,80
2017-04-03T11:33:53.151Z,80
2017-04-03T11:35:01.361Z,76
2017-04-03T11:36:09.327Z,80
2017-04-03T11:37:17.411Z,68
2017-04-03T11:38:25.500Z,72
2017-04-03T11:39:33.588Z,80
2017-04-03T11:40:41.672Z,84
2017-04-03T11:41:49.757Z,84
2017-04-03T11:42:57.840Z,80
2017-04-03T11:44:05.936Z,76
2017-04-03T11:45:14.026Z,80
2017-04-03T11:46:22.103Z,80
2017-04-03T11:47:30.195Z,80
2017-04-03T11:48:38.281Z,84
2017-04-03T11:49:46.368Z,84
2017-04-03T11:50:54.449Z,84
2017-04-03T11:52:02.539Z,84
2017-04-03T11:53:10.625Z,84
2017-04-03T11:54:18.711Z,84
2017-04-03T11:55:26.796Z,84
2017-04-03T11:56:34.881Z,84
2017-04-03T11:57:42.964Z,80
2017-04-03T11:58:51.055Z,80
2017-04-03T11:59:59.141Z,80
2017-04-03T12:01:07.228Z,84
2017-04-03T12:02:15.311Z,84
2017-04-03T12:03:23.399Z,72
2017-04-03T12:04:31.485Z,72
2017-04-03T12:05:39.577Z,84
2017-04-03T12:06:47.657Z,84
2017-04-03T12:07:55.752Z,80
2017-04-03T12:09:03.845Z,76
2017-04-03T12:10:11.942Z,60
2017-04-03T12:11:20.100Z,76
2017-04-03T12:12:28.111Z,76
2017-04-03T12:13:36.201Z,80
2017-04-03T12:14:44.284Z,80
2017-04-03T12:15:52.381Z,72
2017-04-03T12:17:00.470Z,72
2017-04-03T12:18:08.632Z,72
2017-04-03T12:19:16.861Z,76
2017-04-03T12:20:24.735Z,72
2017-04-03T12:21:32.819Z,72
2017-04-03T12:22:40.903Z,64
2017-04-03T12:23:48.993Z,56
2017-04-03T12:24:57.081Z,56
2017-04-03T12:26:05.163Z,52
2017-04-03T12:27:13.255Z,52
2017-04-03T12:28:21.340Z,52
2017-04-03T12:29:29.428Z,52
2017-04-03T12:30:37.512Z,36
2017-04-03T12:31:45.600Z,40
2017-04-03T12:32:53.689Z,44
2017-04-03T12:34:01.785Z,40
2017-04-03T12:35:09.870Z,24
2017-04-03T12:36:17.955Z,24
2017-04-03T12:37:26.039Z,24
2017-04-03T12:38:34.125Z,28
2017-04-03T12:39:42.220Z,28
2017-04-03T12:40:50.306Z,32
2017-04-03T12:41:58.391Z,40
2017-04-03T12:43:06.481Z,28
2017-04-03T12:44:14.567Z,28
2017-04-03T12:45:22.651Z,28
2017-04-03T12:46:30.741Z,28
2017-04-03T12:47:38.826Z,28
2017-04-03T12:48:46.911Z,28
2017-04-03T12:49:54.991Z,28
2017-04-03T12:51:03.087Z,28
2017-04-03T12:52:11.201Z,28
2017-04-03T12:53:19.264Z,24
2017-04-03T12:54:27.350Z,24
2017-04-03T12:55:35.445Z,24
2017-04-03T12:56:43.533Z,24
2017-04-03T12:57:51.612Z,20
2017-04-03T12:58:59.706Z,20
2017-04-03T13:00:07.789Z,16
2017-04-03T13:01:15.876Z,16
2017-04-03T13:02:23.973Z,20
2017-04-03T13:03:32.068Z,16
2017-04-03T13:04:40.156Z,16
2017-04-03T13:05:48.237Z,16
2017-04-03T13:06:56.329Z,16
2017-04-03T13:08:04.428Z,12
2017-04-03T13:09:13.143Z,16
2017-04-03T13:10:20.951Z,12
2017-04-03T13:11:28.698Z,12
2017-04-03T13:12:37.198Z,16
2017-04-03T13:13:45.215Z,16
2017-04-03T13:14:53.093Z,16
2017-04-03T13:16:01.582Z,12
2017-04-03T13:17:09.651Z,16
2017-04-03T13:18:17.476Z,16
2017-04-03T13:19:25.323Z,16
2017-04-03T13:20:33.412Z,16
2017-04-03T13:21:41.495Z,16
2017-04-03T13:22:49.587Z,16
2017-04-03T13:23:57.797Z,12
2017-04-03T13:25:05.754Z,16
2017-04-03T13:26:13.841Z,16
2017-04-03T13:27:21.927Z,16
2017-04-03T13:28:30.019Z,16
2017-04-03T13:29:38.099Z,12
2017-04-03T13:30:46.196Z,12
2017-04-03T13:31:54.277Z,12
2017-04-03T13:33:02.360Z,12
2017-04-03T13:34:10.463Z,12
2017-04-03T13:35:18.537Z,12
2017-04-03T13:36:26.620Z,12
2017-04-03T13:37:34.709Z,16
2017-04-03T13:38:42.810Z,16
2017-04-03T13:39:50.897Z,12
2017-04-03T13:40:58.985Z,16
2017-04-03T13:42:07.067Z,16
2017-04-03T13:43:15.159Z,16
2017-04-03T13:44:23.243Z,16
2017-04-03T13:45:31.335Z,16
2017-04-03T13:46:39.424Z,20
2017-04-03T13:47:47.507Z,16
2017-04-03T13:48:55.593Z,20
2017-04-03T13:50:03.685Z,20
2017-04-03T13:51:11.786Z,20
2017-04-03T13:52:19.865Z,20
2017-04-03T13:53:27.948Z,20
2017-04-03T13:54:36.038Z,20
2017-04-03T13:55:44.126Z,20
2017-04-03T13:56:52.211Z,20
2017-04-03T13:58:00.308Z,20
2017-04-03T13:59:08.396Z,20
2017-04-03T14:00:16.571Z,24
2017-04-03T14:01:24.575Z,24
2017-04-03T14:02:32.663Z,24
2017-04-03T14:03:40.755Z,24
2017-04-03T14:04:48.837Z,24
2017-04-03T14:05:56.935Z,28
2017-04-03T14:07:05.018Z,28
2017-04-03T14:08:13.098Z,28
2017-04-03T14:09:21.197Z,32
2017-04-03T14:10:29.285Z,28
2017-04-03T14:11:37.370Z,32
2017-04-03T14:12:45.452Z,32
2017-04-03T14:13:53.558Z,32
2017-04-03T14:15:01.633Z,32
2017-04-03T14:16:09.720Z,32
2017-04-03T14:17:17.808Z,36
2017-04-03T14:18:25.893Z,32
2017-04-03T14:19:33.982Z,32
2017-04-03T14:20:42.064Z,32
2017-04-03T14:21:50.153Z,36
2017-04-03T14:22:58.242Z,36
2017-04-03T14:24:06.330Z,36
2017-04-03T14:25:14.422Z,36
2017-04-03T14:26:22.505Z,36
2017-04-03T14:27:30.594Z,36
2017-04-03T14:28:38.676Z,40
2017-04-03T14:29:46.765Z,40
2017-04-03T14:30:54.855Z,36
2017-04-03T14:32:02.935Z,40
2017-04-03T14:33:11.026Z,40
2017-04-03T14:34:19.113Z,40
2017-04-03T14:35:27.204Z,40
2017-04-03T14:36:35.292Z,40
2017-04-03T14:37:43.383Z,44
2017-04-03T14:38:51.464Z,44
2017-04-03T14:39:59.550Z,44
2017-04-03T14:41:07.635Z,40
2017-04-03T14:42:15.720Z,40
2017-04-03T14:43:23.811Z,40
2017-04-03T14:44:31.900Z,44
2017-04-03T14:45:39.994Z,40
2017-04-03T14:46:48.107Z,36
2017-04-03T14:47:56.165Z,36
2017-04-03T14:49:04.253Z,36
2017-04-03T14:50:12.338Z,32
2017-04-03T14:51:20.434Z,32
2017-04-03T14:52:28.514Z,36
2017-04-03T14:53:36.600Z,32
2017-04-03T14:54:44.687Z,32
2017-04-03T14:55:52.771Z,32
2017-04-03T14:57:00.861Z,32
2017-04-03T14:58:08.951Z,32
2017-04-03T14:59:17.030Z,32
2017-04-03T15:00:25.117Z,32
2017-04-03T15:01:33.207Z,32
2017-04-03T15:02:41.290Z,32
2017-04-03T15:03:49.454Z,32
2017-04-03T15:04:57.469Z,28
2017-04-03T15:06:05.563Z,28
2017-04-03T15:07:13.647Z,28
2017-04-03T15:08:21.734Z,24
2017-04-03T15:09:29.820Z,24
2017-04-03T15:10:37.906Z,24
2017-04-03T15:11:45.991Z,24
2017-04-03T15:12:54.208Z,28
2017-04-03T15:14:02.172Z,24
2017-04-03T15:15:10.257Z,24
2017-04-03T15:16:18.348Z,28
2017-04-03T15:17:26.438Z,28
2017-04-03T15:18:34.526Z,28
2017-04-03T15:19:42.609Z,24
2017-04-03T15:20:50.702Z,24
2017-04-03T15:21:58.790Z,24
2017-04-03T15:23:06.876Z,24
2017-04-03T15:24:14.973Z,28
2017-04-03T15:25:23.530Z,28
2017-04-03T15:26:31.462Z,24
2017-04-03T15:27:39.383Z,24
2017-04-03T15:28:47.519Z,24
2017-04-03T15:29:55.403Z,24
2017-04-03T15:31:03.490Z,24
2017-04-03T15:32:11.789Z,24
2017-04-03T15:33:19.966Z,24
2017-04-03T15:34:27.957Z,24
2017-04-03T15:35:35.827Z,24
2017-04-03T15:36:44.565Z,24
2017-04-03T15:37:52.018Z,20
2017-04-03T15:39:00.090Z,20
2017-04-03T15:40:08.181Z,20
2017-04-03T15:41:16.276Z,20
2017-04-03T15:42:24.362Z,20
2017-04-03T15:43:32.441Z,20
2017-04-03T15:44:40.531Z,20
2017-04-03T15:45:48.619Z,20
2017-04-03T15:46:56.701Z,20
2017-04-03T15:48:04.788Z,20
2017-04-03T15:49:12.875Z,16
2017-04-03T15:50:20.962Z,16
2017-04-03T15:51:29.043Z,16
2017-04-03T15:52:37.135Z,16
2017-04-03T15:53:45.217Z,12
2017-04-03T15:54:53.302Z,16
2017-04-03T15:56:01.390Z,16
2017-04-03T15:57:09.474Z,16
2017-04-03T15:58:17.568Z,16
2017-04-03T15:59:25.656Z,12
2017-04-03T16:00:33.744Z,12
2017-04-03T16:01:41.835Z,12
2017-04-03T16:02:49.917Z,12
2017-04-03T16:03:58.005Z,12
2017-04-03T16:05:06.102Z,12
2017-04-03T16:06:14.183Z,12
2017-04-03T16:07:22.265Z,12
2017-04-03T16:08:30.365Z,12
2017-04-03T16:09:38.451Z,12
2017-04-03T16:10:46.597Z,12
2017-04-03T16:11:54.742Z,12
2017-04-03T16:13:02.718Z,8
2017-04-03T16:14:10.799Z,12
2017-04-03T16:15:18.897Z,12
2017-04-03T16:16:26.977Z,8
2017-04-03T16:17:35.063Z,8
2017-04-03T16:18:43.144Z,12
2017-04-03T16:19:51.238Z,12
2017-04-03T16:20:59.321Z,8
2017-04-03T16:22:07.406Z,8
2017-04-03T16:23:15.494Z,8